Time;durP1;ratioP1;P1;durP2;ratioP2;P2;SDS_P1;SDS_P2;PMS_P1;PMS_P2;Temp;Humidity;BMP_temperature;BMP_pressure;BME280_temperature;BME280_humidity;BME280_pressure;Samples;Min_cycle;Max_cycle;Signal;HPM_P1;HPM_P2
2023/10/06 00:02:28;;;;;;;4.57;2.40;;;18.40;99.90;;;;;;5109295;28;20166;-88
2023/10/06 00:04:53;;;;;;;2.70;2.10;;;18.40;99.90;;;;;;5102686;28;20240;-87
2023/10/06 00:07:21;;;;;;;3.13;1.87;;;18.40;99.90;;;;;;5108761;28;20364;-87
2023/10/06 00:09:47;;;;;;;3.03;2.00;;;18.40;99.90;;;;;;5104830;28;20171;-88
2023/10/06 00:12:13;;;;;;;4.27;2.27;;;18.40;99.90;;;;;;5105620;28;20170;-88
2023/10/06 00:14:40;;;;;;;4.60;1.90;;;18.40;99.90;;;;;;5109343;28;20244;-88
2023/10/06 00:17:19;;;;;;;2.97;1.80;;;18.40;99.90;;;;;;5104683;28;20179;-87
2023/10/06 00:19:48;;;;;;;3.77;1.93;;;18.40;99.90;;;;;;5113904;28;20628;-87
2023/10/06 00:24:43;;;;;;;2.47;1.70;;;18.30;99.90;;;;;;5114632;28;20560;-87
2023/10/06 00:27:13;;;;;;;4.83;2.20;;;18.30;99.90;;;;;;5104693;28;20219;-87
2023/10/06 00:30:20;;;;;;;5.17;2.30;;;18.30;99.90;;;;;;5114638;28;20164;-87
2023/10/06 00:32:36;;;;;;;5.70;2.20;;;18.30;99.90;;;;;;5107228;28;20177;-87
2023/10/06 00:35:15;;;;;;;3.63;2.10;;;18.30;99.90;;;;;;5115341;28;20185;-88
2023/10/06 00:37:41;;;;;;;4.00;2.20;;;18.30;99.90;;;;;;5097746;28;20269;-87
2023/10/06 00:40:19;;;;;;;3.80;2.07;;;18.30;99.90;;;;;;5098654;28;20174;-87
2023/10/06 00:43:00;;;;;;;4.60;2.30;;;18.30;99.90;;;;;;5089005;28;20187;-87
2023/10/06 00:45:26;;;;;;;3.00;2.00;;;18.20;99.90;;;;;;5100255;28;20247;-88
2023/10/06 00:47:53;;;;;;;3.83;1.90;;;18.30;99.90;;;;;;5097555;28;20198;-88
2023/10/06 00:50:22;;;;;;;3.50;2.20;;;18.30;99.90;;;;;;5096870;28;20166;-88
2023/10/06 00:52:48;;;;;;;3.87;2.10;;;18.20;99.90;;;;;;5104788;28;20200;-87
2023/10/06 00:55:16;;;;;;;3.47;2.00;;;18.20;99.90;;;;;;5110889;28;20282;-87
2023/10/06 00:57:42;;;;;;;3.77;2.10;;;18.20;99.90;;;;;;5103823;28;20167;-87
2023/10/06 01:00:19;;;;;;;3.10;2.10;;;18.20;99.90;;;;;;5091834;28;20206;-87
2023/10/06 01:02:45;;;;;;;3.20;2.33;;;18.20;99.90;;;;;;5100593;28;20530;-88
2023/10/06 01:05:11;;;;;;;3.77;2.30;;;18.20;99.90;;;;;;5112233;28;20552;-88
2023/10/06 01:07:36;;;;;;;2.43;1.73;;;18.20;99.90;;;;;;5098613;28;20500;-87
2023/10/06 01:10:16;;;;;;;3.73;1.97;;;18.20;99.90;;;;;;5113917;28;20261;-87
2023/10/06 01:12:50;;;;;;;3.60;2.20;;;18.20;99.90;;;;;;5101059;28;20770;-87
2023/10/06 01:15:18;;;;;;;3.60;2.33;;;18.20;99.90;;;;;;5114219;28;20231;-88
2023/10/06 01:17:48;;;;;;;3.50;2.00;;;18.10;99.90;;;;;;5101412;28;20175;-88
2023/10/06 01:20:33;;;;;;;4.30;1.77;;;18.10;99.90;;;;;;5095335;28;20456;-87
2023/10/06 01:22:59;;;;;;;3.00;2.00;;;18.10;99.90;;;;;;5098489;28;20175;-87
2023/10/06 01:25:25;;;;;;;2.80;1.80;;;18.10;99.90;;;;;;5115627;28;20173;-87
2023/10/06 01:27:51;;;;;;;3.23;2.00;;;18.10;99.90;;;;;;5104791;28;20455;-87
2023/10/06 01:30:18;;;;;;;3.07;2.20;;;18.10;99.90;;;;;;5112501;28;20178;-87
2023/10/06 01:32:50;;;;;;;3.30;2.20;;;18.10;99.90;;;;;;5106857;27;20560;-87
2023/10/06 01:35:26;;;;;;;3.23;1.90;;;18.10;99.90;;;;;;5111097;28;20186;-88
2023/10/06 01:37:59;;;;;;;3.47;2.10;;;18.10;99.90;;;;;;5107031;28;20178;-87
2023/10/06 01:42:51;;;;;;;4.03;2.10;;;18.00;99.90;;;;;;5109461;28;20532;-87
2023/10/06 01:45:23;;;;;;;3.53;1.97;;;18.00;99.90;;;;;;5108353;28;20170;-87
2023/10/06 01:48:22;;;;;;;3.50;2.10;;;18.10;99.90;;;;;;5109320;28;20446;-87
2023/10/06 01:50:41;;;;;;;2.63;2.00;;;18.00;99.90;;;;;;5110013;28;20560;-87
2023/10/06 01:53:10;;;;;;;3.73;2.30;;;18.00;99.90;;;;;;5110116;28;20339;-88
2023/10/06 01:55:38;;;;;;;3.13;1.90;;;18.10;99.90;;;;;;5100678;28;20279;-87
2023/10/06 01:58:07;;;;;;;3.70;2.10;;;18.00;99.90;;;;;;5098032;28;20484;-88
2023/10/06 02:00:34;;;;;;;3.23;2.10;;;18.00;99.90;;;;;;5103556;28;20537;-87
2023/10/06 02:03:10;;;;;;;2.73;2.10;;;18.00;99.90;;;;;;5096440;28;20227;-87
2023/10/06 02:05:39;;;;;;;5.20;2.10;;;18.00;99.90;;;;;;5104772;28;20560;-87
2023/10/06 02:08:09;;;;;;;3.30;1.80;;;18.00;99.90;;;;;;5094994;28;20321;-87
2023/10/06 02:10:35;;;;;;;2.40;1.80;;;18.00;99.90;;;;;;5114011;28;20177;-87
2023/10/06 02:13:01;;;;;;;4.90;1.77;;;18.00;99.90;;;;;;5113185;28;20176;-87
2023/10/06 02:15:27;;;;;;;4.30;2.00;;;18.00;99.90;;;;;;5107632;28;20296;-88
2023/10/06 02:17:53;;;;;;;3.00;2.00;;;18.00;99.90;;;;;;5094043;28;20231;-87
2023/10/06 02:22:55;;;;;;;4.03;2.20;;;18.00;99.90;;;;;;5094861;28;20195;-87
2023/10/06 02:25:22;;;;;;;3.60;2.27;;;17.90;99.90;;;;;;5106657;28;20186;-87
2023/10/06 02:27:50;;;;;;;3.00;2.20;;;18.00;99.90;;;;;;5094873;28;20263;-87
2023/10/06 02:30:24;;;;;;;2.83;1.90;;;17.90;99.90;;;;;;5107412;28;20169;-87
2023/10/06 02:32:53;;;;;;;2.50;2.03;;;17.80;99.90;;;;;;5094527;28;20178;-88
2023/10/06 02:35:19;;;;;;;4.23;1.80;;;17.90;99.90;;;;;;5105771;28;20321;-88
2023/10/06 02:37:49;;;;;;;4.17;2.00;;;17.90;99.90;;;;;;5095192;28;20567;-88
2023/10/06 02:40:16;;;;;;;3.30;2.00;;;17.90;99.90;;;;;;5105028;28;20182;-88
2023/10/06 02:42:51;;;;;;;3.47;2.20;;;17.90;99.90;;;;;;5096646;28;20179;-87
2023/10/06 02:45:20;;;;;;;2.73;1.77;;;17.90;99.90;;;;;;5103690;28;20216;-87
2023/10/06 02:47:51;;;;;;;2.43;1.80;;;17.90;99.90;;;;;;5097127;28;20222;-88
2023/10/06 02:50:20;;;;;;;3.70;2.10;;;17.90;99.90;;;;;;5103052;28;20162;-87
2023/10/06 02:52:47;;;;;;;2.70;1.70;;;17.90;99.90;;;;;;5098668;28;20195;-88
2023/10/06 02:55:19;;;;;;;3.40;1.93;;;17.90;99.90;;;;;;5098823;28;20205;-88
2023/10/06 02:57:51;;;;;;;2.90;1.90;;;17.90;99.90;;;;;;5099647;28;20536;-88
2023/10/06 03:02:47;;;;;;;3.73;1.90;;;17.90;99.90;;;;;;5102912;28;20575;-88
2023/10/06 03:05:14;;;;;;;2.70;1.97;;;17.90;99.90;;;;;;5097027;28;20171;-87
2023/10/06 03:07:43;;;;;;;4.00;2.10;;;17.80;99.90;;;;;;5103654;28;20464;-87
2023/10/06 03:10:11;;;;;;;3.87;2.17;;;17.70;99.90;;;;;;5096061;28;20270;-88
2023/10/06 03:12:39;;;;;;;3.57;2.27;;;17.80;99.90;;;;;;5114839;28;20401;-87
2023/10/06 03:15:26;;;;;;;3.70;1.80;;;17.70;99.90;;;;;;5112382;28;20272;-87
2023/10/06 03:17:51;;;;;;;3.23;2.07;;;17.80;99.90;;;;;;5101181;28;20389;-88
2023/10/06 03:20:22;;;;;;;2.70;1.90;;;17.70;99.90;;;;;;5111121;28;20174;-87
2023/10/06 03:22:52;;;;;;;2.90;1.90;;;17.80;99.90;;;;;;5100664;28;20507;-87
2023/10/06 03:25:18;;;;;;;1.80;1.60;;;17.80;99.90;;;;;;5111134;28;20507;-87
2023/10/06 03:27:53;;;;;;;2.30;1.70;;;17.70;99.90;;;;;;5100890;28;20203;-87
2023/10/06 03:30:27;;;;;;;2.80;1.80;;;17.80;99.90;;;;;;5112726;28;20173;-87
2023/10/06 03:32:54;;;;;;;3.87;2.30;;;17.80;99.90;;;;;;5105725;28;20194;-87
2023/10/06 03:35:45;;;;;;;2.70;1.87;;;17.80;99.90;;;;;;5092502;28;20186;-87
2023/10/06 03:46:02;;;;;;;3.20;1.87;;;17.80;99.90;;;;;;5095157;28;20183;-88
2023/10/06 03:48:29;;;;;;;2.20;1.90;;;17.70;99.90;;;;;;5102826;28;20331;-88
2023/10/06 03:50:56;;;;;;;3.03;1.77;;;17.80;99.90;;;;;;5092716;28;20159;-88
2023/10/06 03:53:24;;;;;;;3.30;1.87;;;17.70;99.90;;;;;;5107330;28;20265;-88
2023/10/06 03:55:50;;;;;;;4.60;1.70;;;17.70;99.90;;;;;;5111244;28;20154;-87
2023/10/06 03:58:18;;;;;;;2.80;1.90;;;17.80;99.90;;;;;;5097314;28;20222;-87
2023/10/06 04:00:47;;;;;;;3.53;1.73;;;17.70;99.90;;;;;;5110538;28;20169;-88
2023/10/06 04:03:20;;;;;;;1.87;1.63;;;17.80;99.90;;;;;;5097093;28;20238;-87
2023/10/06 04:05:48;;;;;;;2.27;1.70;;;17.80;99.90;;;;;;5088812;28;20183;-88
2023/10/06 04:08:16;;;;;;;3.33;2.17;;;17.70;99.90;;;;;;5099794;28;20200;-87
2023/10/06 04:10:48;;;;;;;3.70;2.10;;;17.70;99.90;;;;;;5090558;28;20178;-87
2023/10/06 04:13:17;;;;;;;4.40;1.83;;;17.60;99.90;;;;;;5091380;28;20281;-87
2023/10/06 04:15:48;;;;;;;3.37;2.20;;;17.50;99.90;;;;;;5106165;28;20174;-87
2023/10/06 04:18:18;;;;;;;2.50;1.90;;;17.50;99.90;;;;;;5101900;28;20165;-87
2023/10/06 04:20:46;;;;;;;2.27;1.90;;;17.50;99.90;;;;;;5106656;28;20234;-87
2023/10/06 04:23:12;;;;;;;3.50;1.90;;;17.60;99.90;;;;;;5104589;28;20169;-87
2023/10/06 04:25:39;;;;;;;3.00;2.00;;;17.60;99.90;;;;;;5105004;28;20193;-87
2023/10/06 04:28:11;;;;;;;4.37;2.00;;;17.60;99.90;;;;;;5106543;28;20282;-87
2023/10/06 04:30:38;;;;;;;3.13;1.90;;;17.60;99.90;;;;;;5103119;28;20178;-87
2023/10/06 04:33:08;;;;;;;3.23;1.90;;;17.60;99.90;;;;;;5106964;28;20520;-87
2023/10/06 04:35:34;;;;;;;3.37;1.93;;;17.60;99.90;;;;;;5099317;28;20185;-87
2023/10/06 04:38:05;;;;;;;3.33;1.77;;;17.60;99.90;;;;;;5104949;28;20182;-87
2023/10/06 04:40:32;;;;;;;2.23;1.80;;;17.50;99.90;;;;;;5099061;28;20174;-87
2023/10/06 04:42:59;;;;;;;4.00;2.17;;;17.40;99.90;;;;;;5089232;28;20179;-87
2023/10/06 04:45:25;;;;;;;2.77;1.90;;;17.50;99.90;;;;;;5099035;28;20180;-87
2023/10/06 04:47:55;;;;;;;3.43;1.80;;;17.50;99.90;;;;;;5089639;28;20203;-87
2023/10/06 04:50:22;;;;;;;3.50;1.93;;;17.50;99.90;;;;;;5092068;28;20395;-87
2023/10/06 04:52:48;;;;;;;3.43;2.20;;;17.50;99.90;;;;;;5109018;28;20170;-87
2023/10/06 04:55:14;;;;;;;3.60;2.13;;;17.50;99.90;;;;;;5101987;28;20184;-87
2023/10/06 04:57:43;;;;;;;3.87;2.20;;;17.50;99.90;;;;;;5090652;28;20180;-87
2023/10/06 05:00:40;;;;;;;3.33;2.07;;;17.40;99.90;;;;;;5103863;28;20236;-87
2023/10/06 05:03:06;;;;;;;3.63;2.40;;;17.40;99.90;;;;;;5087916;28;20460;-87
2023/10/06 05:05:37;;;;;;;4.43;2.47;;;17.50;99.90;;;;;;5103836;28;20246;-87
2023/10/06 05:08:05;;;;;;;4.03;2.27;;;17.50;99.90;;;;;;5089994;28;20641;-87
2023/10/06 05:10:32;;;;;;;4.17;2.30;;;17.50;99.90;;;;;;5102406;28;20224;-87
2023/10/06 05:13:06;;;;;;;2.90;2.17;;;17.50;99.90;;;;;;5090002;28;20174;-87
2023/10/06 05:15:35;;;;;;;2.63;2.20;;;17.50;99.90;;;;;;5102260;28;20170;-87
2023/10/06 05:18:03;;;;;;;6.90;2.50;;;17.50;99.90;;;;;;5093427;28;20174;-87
2023/10/06 05:20:33;;;;;;;3.67;2.60;;;17.50;99.90;;;;;;5109467;28;20173;-87
2023/10/06 05:23:09;;;;;;;4.47;2.30;;;17.50;99.90;;;;;;5094666;28;20269;-87
2023/10/06 05:25:41;;;;;;;3.87;2.10;;;17.50;99.90;;;;;;5101087;28;20181;-87
2023/10/06 05:28:16;;;;;;;3.10;2.10;;;17.40;99.90;;;;;;5094251;28;20204;-87
2023/10/06 05:30:43;;;;;;;4.33;2.53;;;17.40;99.90;;;;;;5099230;28;20177;-87
2023/10/06 05:33:11;;;;;;;3.27;2.47;;;17.40;99.90;;;;;;5095844;28;20262;-87
2023/10/06 05:35:41;;;;;;;3.53;2.10;;;17.40;99.90;;;;;;5098020;28;20189;-88
2023/10/06 05:38:08;;;;;;;3.53;2.03;;;17.40;99.90;;;;;;5095094;28;20337;-87
2023/10/06 05:40:34;;;;;;;3.40;2.30;;;17.40;99.90;;;;;;5093494;28;20172;-87
2023/10/06 05:43:01;;;;;;;3.27;2.03;;;17.40;99.90;;;;;;5096908;28;20178;-87
2023/10/06 05:45:29;;;;;;;4.47;2.30;;;17.40;99.90;;;;;;5090854;28;20180;-87
2023/10/06 05:47:58;;;;;;;2.17;1.97;;;17.40;99.90;;;;;;5108203;28;20222;-87
2023/10/06 05:50:28;;;;;;;3.37;2.20;;;17.40;99.90;;;;;;5103115;28;20506;-87
2023/10/06 05:53:00;;;;;;;3.87;2.07;;;17.50;99.90;;;;;;5095854;28;20494;-87
2023/10/06 05:55:30;;;;;;;3.47;2.30;;;17.50;99.90;;;;;;5086030;28;20477;-87
2023/10/06 05:58:00;;;;;;;3.50;2.30;;;17.50;99.90;;;;;;5092223;28;20197;-87
2023/10/06 06:00:29;;;;;;;4.33;2.00;;;17.50;99.90;;;;;;5104115;28;20443;-87
2023/10/06 06:02:58;;;;;;;4.70;2.00;;;17.50;99.90;;;;;;5087922;28;20220;-87
2023/10/06 06:05:26;;;;;;;4.20;2.03;;;17.50;99.90;;;;;;5086171;28;20173;-87
2023/10/06 06:07:51;;;;;;;3.20;2.10;;;17.50;99.90;;;;;;5102956;28;20204;-87
2023/10/06 06:10:18;;;;;;;3.03;1.97;;;17.50;99.90;;;;;;5087830;28;20182;-87
2023/10/06 06:12:44;;;;;;;6.00;2.17;;;17.50;99.90;;;;;;5100314;28;20177;-87
2023/10/06 06:15:11;;;;;;;4.03;2.23;;;17.60;99.90;;;;;;5086129;28;20173;-87
2023/10/06 06:17:37;;;;;;;4.60;2.27;;;17.60;99.90;;;;;;5097563;28;20521;-87
2023/10/06 06:20:07;;;;;;;2.80;2.00;;;17.60;99.90;;;;;;5083918;28;20205;-87
2023/10/06 06:22:36;;;;;;;3.40;2.10;;;17.60;99.90;;;;;;5096347;28;20405;-87
2023/10/06 06:25:06;;;;;;;5.50;2.20;;;17.60;99.90;;;;;;5088175;28;20174;-88
2023/10/06 06:27:32;;;;;;;4.30;2.00;;;17.60;99.90;;;;;;5093023;28;20201;-87
2023/10/06 06:29:59;;;;;;;5.40;2.27;;;17.60;99.90;;;;;;5090699;28;20171;-87
2023/10/06 06:32:27;;;;;;;2.83;2.27;;;17.70;99.90;;;;;;5094022;28;20205;-87
2023/10/06 06:34:53;;;;;;;2.70;2.10;;;17.70;99.90;;;;;;5091647;28;20189;-87
2023/10/06 06:37:20;;;;;;;8.37;2.40;;;17.80;99.90;;;;;;5089852;28;20515;-87
2023/10/06 06:39:46;;;;;;;4.10;2.10;;;17.80;99.90;;;;;;5095259;28;20568;-87
2023/10/06 06:42:13;;;;;;;3.37;2.07;;;17.80;99.90;;;;;;5088218;28;20178;-87
2023/10/06 06:44:39;;;;;;;6.47;2.13;;;17.90;99.90;;;;;;5098350;28;20216;-88
2023/10/06 06:47:05;;;;;;;3.07;2.00;;;17.90;99.90;;;;;;5106504;28;20175;-87
2023/10/06 06:49:31;;;;;;;3.30;2.20;;;18.00;99.90;;;;;;5096229;28;20260;-87
2023/10/06 06:52:00;;;;;;;3.23;2.10;;;18.00;99.90;;;;;;5109126;28;20162;-87
2023/10/06 06:54:27;;;;;;;5.47;2.00;;;18.00;99.90;;;;;;5098153;28;20163;-87
2023/10/06 06:56:53;;;;;;;5.00;2.30;;;18.10;99.90;;;;;;5084718;28;20266;-87
2023/10/06 06:59:20;;;;;;;5.20;2.20;;;18.10;99.90;;;;;;5097087;28;20229;-87
2023/10/06 07:01:47;;;;;;;4.87;2.37;;;18.10;99.90;;;;;;5082619;28;20182;-87
2023/10/06 07:04:13;;;;;;;6.40;2.50;;;18.20;99.90;;;;;;5096983;28;20171;-87
2023/10/06 07:06:39;;;;;;;4.13;2.27;;;18.20;99.90;;;;;;5083641;28;20267;-87
2023/10/06 07:09:12;;;;;;;5.50;2.97;;;18.20;99.90;;;;;;5088094;28;20289;-87
2023/10/06 07:11:41;;;;;;;4.43;2.20;;;18.20;99.90;;;;;;5102963;28;20246;-87
2023/10/06 07:14:08;;;;;;;4.30;2.07;;;18.30;99.90;;;;;;5096340;28;20177;-87
2023/10/06 07:16:35;;;;;;;7.73;2.50;;;18.30;99.90;;;;;;5101071;28;20166;-88
2023/10/06 07:19:01;;;;;;;5.40;2.13;;;18.30;99.90;;;;;;5099613;28;20217;-88
2023/10/06 07:21:28;;;;;;;4.67;2.20;;;18.40;99.90;;;;;;5098840;28;20201;-87
2023/10/06 07:23:56;;;;;;;7.90;2.20;;;18.50;99.60;;;;;;5098929;28;20432;-87
2023/10/06 07:26:22;;;;;;;5.90;2.07;;;18.50;99.40;;;;;;5094694;28;20370;-87
2023/10/06 07:28:56;;;;;;;6.80;2.33;;;18.50;99.50;;;;;;5087108;28;20599;-87
2023/10/06 07:31:24;;;;;;;4.50;2.23;;;18.50;99.40;;;;;;5095417;28;20345;-87
2023/10/06 07:33:57;;;;;;;5.90;2.50;;;18.50;99.50;;;;;;5084965;28;20346;-87
2023/10/06 07:36:23;;;;;;;4.47;2.30;;;18.50;99.40;;;;;;5104525;28;20178;-88
2023/10/06 07:38:49;;;;;;;4.13;2.07;;;18.50;99.40;;;;;;5102037;28;20378;-87
2023/10/06 07:41:25;;;;;;;6.73;2.60;;;18.50;99.30;;;;;;5094607;28;20234;-87
2023/10/06 07:43:52;;;;;;;5.00;2.33;;;18.50;99.30;;;;;;5102513;28;20233;-88
2023/10/06 07:46:19;;;;;;;4.70;2.30;;;18.50;99.30;;;;;;5096524;28;20231;-88
2023/10/06 07:48:45;;;;;;;4.23;2.27;;;18.50;99.30;;;;;;5083815;28;20223;-88
2023/10/06 07:51:16;;;;;;;4.40;2.27;;;18.50;99.00;;;;;;5095660;28;20385;-88
2023/10/06 07:53:43;;;;;;;4.67;2.37;;;18.50;99.40;;;;;;5081441;28;20281;-87
2023/10/06 07:56:09;;;;;;;4.37;1.97;;;18.60;99.00;;;;;;5087530;28;20560;-88
2023/10/06 07:58:38;;;;;;;6.27;1.87;;;18.60;98.80;;;;;;5102182;28;20226;-88
2023/10/06 08:01:08;;;;;;;4.80;2.10;;;18.60;98.80;;;;;;5097727;28;20267;-88
2023/10/06 08:03:38;;;;;;;5.30;2.30;;;18.70;98.60;;;;;;5081114;28;20253;-88
2023/10/06 08:06:06;;;;;;;4.50;2.20;;;18.80;98.20;;;;;;5091752;28;20170;-88
2023/10/06 08:08:35;;;;;;;5.33;2.13;;;18.90;98.10;;;;;;5102503;28;20472;-88
2023/10/06 08:11:02;;;;;;;4.13;2.13;;;18.90;98.00;;;;;;5095757;28;20414;-89
2023/10/06 08:13:30;;;;;;;4.77;2.30;;;18.80;98.00;;;;;;5098599;28;20530;-87
2023/10/06 08:15:58;;;;;;;4.90;2.27;;;18.90;97.90;;;;;;5097103;28;20166;-88
2023/10/06 08:18:25;;;;;;;3.43;2.03;;;18.90;97.90;;;;;;5096917;28;20170;-88
2023/10/06 08:20:53;;;;;;;4.30;2.40;;;18.90;97.70;;;;;;5097337;28;20182;-88
2023/10/06 08:23:19;;;;;;;3.60;2.40;;;18.90;97.50;;;;;;5093902;28;20265;-87
2023/10/06 08:25:46;;;;;;;4.87;2.33;;;19.00;97.50;;;;;;5100973;28;20323;-88
2023/10/06 08:28:12;;;;;;;3.70;2.03;;;19.10;97.30;;;;;;5091638;28;20288;-88
2023/10/06 08:30:38;;;;;;;4.23;2.37;;;19.20;96.90;;;;;;5102246;28;20532;-88
2023/10/06 08:33:08;;;;;;;5.30;2.33;;;19.30;96.60;;;;;;5091275;28;20215;-88
2023/10/06 08:35:35;;;;;;;3.10;2.10;;;19.40;96.30;;;;;;5101442;28;20193;-88
2023/10/06 08:38:02;;;;;;;5.50;2.37;;;19.40;96.10;;;;;;5095670;28;20167;-88
2023/10/06 08:40:29;;;;;;;4.40;2.33;;;19.40;96.20;;;;;;5090743;28;20236;-88
2023/10/06 08:42:56;;;;;;;7.20;2.13;;;19.40;96.30;;;;;;5096765;28;20250;-89
2023/10/06 08:45:23;;;;;;;5.13;2.40;;;19.30;96.60;;;;;;5082380;28;20533;-88
2023/10/06 08:47:58;;;;;;;4.97;2.43;;;19.30;96.60;;;;;;5095662;28;20198;-88
2023/10/06 08:50:28;;;;;;;3.97;2.20;;;19.20;96.80;;;;;;5084885;28;20216;-88
2023/10/06 08:52:56;;;;;;;5.27;2.40;;;19.20;96.90;;;;;;5097619;28;20215;-88
2023/10/06 08:55:24;;;;;;;4.63;2.60;;;19.20;96.80;;;;;;5104310;28;20205;-87
2023/10/06 08:57:52;;;;;;;3.77;2.47;;;19.20;96.90;;;;;;5094638;28;20523;-88
2023/10/06 09:00:24;;;;;;;5.27;2.37;;;19.20;96.80;;;;;;5103655;28;20474;-88
2023/10/06 09:02:51;;;;;;;4.80;2.13;;;19.30;96.80;;;;;;5096524;28;20189;-88
2023/10/06 09:05:18;;;;;;;4.87;2.10;;;19.30;96.70;;;;;;5104424;28;20231;-89
2023/10/06 09:08:05;;;;;;;3.97;1.97;;;19.30;96.80;;;;;;5098920;28;20202;-88
2023/10/06 09:10:32;;;;;;;5.23;2.40;;;19.30;96.70;;;;;;5104425;28;20170;-87
2023/10/06 09:13:04;;;;;;;3.00;2.30;;;19.30;96.60;;;;;;5100568;28;20190;-87
2023/10/06 09:15:30;;;;;;;4.40;2.20;;;19.30;96.90;;;;;;5102192;28;20170;-87
2023/10/06 09:17:57;;;;;;;3.63;2.20;;;19.30;96.60;;;;;;5102620;28;20404;-88
2023/10/06 09:20:32;;;;;;;8.07;2.23;;;19.30;96.60;;;;;;5093693;28;20611;-88
2023/10/06 09:22:59;;;;;;;5.13;2.57;;;19.30;96.50;;;;;;5091210;28;20460;-88
2023/10/06 09:25:25;;;;;;;4.17;2.40;;;19.30;96.50;;;;;;5092205;28;20288;-88
2023/10/06 09:28:17;;;;;;;4.67;2.23;;;19.30;96.70;;;;;;5086153;28;20195;-88
2023/10/06 09:30:50;;;;;;;4.30;2.40;;;19.30;96.60;;;;;;5089112;28;20554;-88
2023/10/06 09:33:17;;;;;;;4.87;2.20;;;19.40;96.50;;;;;;5088590;28;20536;-88
2023/10/06 09:35:43;;;;;;;4.60;2.67;;;19.30;96.60;;;;;;5090540;28;20390;-88
2023/10/06 09:38:16;;;;;;;4.90;2.53;;;19.30;96.60;;;;;;5085648;28;20174;-88
2023/10/06 09:40:46;;;;;;;4.33;2.30;;;19.40;96.60;;;;;;5091767;28;20175;-87
2023/10/06 09:43:17;;;;;;;5.03;2.50;;;19.40;96.50;;;;;;5084821;28;20340;-88
2023/10/06 09:45:43;;;;;;;5.47;2.27;;;19.40;96.50;;;;;;5105658;28;20185;-88
2023/10/06 09:48:33;;;;;;;4.93;2.27;;;19.50;96.60;;;;;;5109356;28;20268;-88
2023/10/06 09:51:06;;;;;;;3.87;2.43;;;19.40;96.40;;;;;;5102463;28;20190;-87
2023/10/06 09:53:37;;;;;;;4.80;2.67;;;19.40;96.40;;;;;;5111185;28;20198;-87
2023/10/06 09:56:07;;;;;;;4.17;2.13;;;19.50;96.50;;;;;;5108583;28;20723;-86
2023/10/06 09:58:35;;;;;;;4.77;2.17;;;19.50;96.50;;;;;;5093653;28;20435;-87
2023/10/06 10:01:03;;;;;;;3.70;2.20;;;19.50;96.50;;;;;;5096206;28;20205;-87
2023/10/06 10:03:29;;;;;;;6.30;2.80;;;19.50;96.40;;;;;;5085182;28;20175;-87
2023/10/06 10:05:57;;;;;;;4.40;2.40;;;19.50;96.50;;;;;;5092966;28;20237;-87
2023/10/06 10:08:24;;;;;;;4.10;2.40;;;19.50;96.70;;;;;;5105557;28;20799;-87
2023/10/06 10:10:52;;;;;;;3.70;2.10;;;19.50;96.40;;;;;;5092003;28;20174;-87
2023/10/06 10:13:34;;;;;;;4.60;2.60;;;19.50;96.60;;;;;;5104666;28;20178;-87
2023/10/06 10:16:28;;;;;;;4.43;2.40;;;19.50;96.50;;;;;;5099351;28;20469;-87
2023/10/06 10:19:00;;;;;;;5.70;2.80;;;19.50;96.60;;;;;;5082695;28;20179;-86
2023/10/06 10:21:26;;;;;;;7.13;2.73;;;19.50;96.70;;;;;;5095251;28;20167;-86
2023/10/06 10:23:55;;;;;;;5.03;2.23;;;19.60;96.70;;;;;;5083746;28;20435;-86
2023/10/06 10:26:27;;;;;;;7.97;2.30;;;19.50;96.70;;;;;;5096534;28;20209;-85
2023/10/06 10:29:17;;;;;;;6.63;2.60;;;19.50;96.70;;;;;;5084760;28;20587;-86
2023/10/06 10:31:47;;;;;;;5.40;2.60;;;19.50;96.90;;;;;;5093818;28;20165;-85
2023/10/06 10:34:25;;;;;;;5.17;2.37;;;19.50;96.80;;;;;;5104751;28;20196;-86
2023/10/06 10:36:53;;;;;;;5.73;2.60;;;19.50;97.00;;;;;;5099187;28;20198;-86
2023/10/06 10:39:20;;;;;;;4.07;2.43;;;19.50;97.10;;;;;;5081999;28;20174;-86
2023/10/06 10:41:46;;;;;;;4.83;2.60;;;19.50;97.20;;;;;;5093296;28;20522;-86
2023/10/06 10:44:14;;;;;;;5.43;2.50;;;19.50;97.20;;;;;;5082115;28;20178;-86
2023/10/06 10:46:52;;;;;;;5.30;2.43;;;19.40;97.40;;;;;;5096001;28;20419;-86
2023/10/06 10:49:20;;;;;;;4.50;2.30;;;19.40;97.30;;;;;;5083748;28;20237;-87
2023/10/06 10:51:57;;;;;;;5.60;2.50;;;19.40;97.30;;;;;;5089158;28;20642;-87
2023/10/06 10:54:26;;;;;;;6.23;2.80;;;19.40;97.40;;;;;;5098343;28;20162;-86
2023/10/06 10:56:53;;;;;;;5.77;2.57;;;19.40;97.40;;;;;;5090958;28;20293;-86
2023/10/06 10:59:21;;;;;;;4.70;2.53;;;19.40;97.30;;;;;;5083200;28;20367;-86
2023/10/06 11:01:53;;;;;;;5.47;2.27;;;19.50;97.50;;;;;;5092338;28;20280;-86
2023/10/06 11:04:30;;;;;;;5.13;2.43;;;19.40;97.50;;;;;;5085667;28;20366;-87
2023/10/06 11:07:01;;;;;;;4.73;2.43;;;19.50;97.40;;;;;;5091490;28;20572;-86
2023/10/06 11:09:40;;;;;;;5.50;2.63;;;19.50;97.40;;;;;;5083985;28;20504;-86
2023/10/06 11:12:24;;;;;;;3.77;2.17;;;19.50;97.50;;;;;;5089666;28;20264;-87
2023/10/06 11:14:51;;;;;;;7.13;2.23;;;19.50;97.30;;;;;;5084741;28;20568;-86
2023/10/06 11:17:26;;;;;;;4.77;2.30;;;19.50;97.40;;;;;;5093088;28;20200;-86
2023/10/06 11:20:22;;;;;;;5.77;2.43;;;19.50;97.40;;;;;;5085917;27;20637;-86
2023/10/06 11:22:59;;;;;;;4.83;2.60;;;19.60;97.40;;;;;;5093465;28;20333;-86
2023/10/06 11:25:29;;;;;;;4.57;2.20;;;19.60;97.40;;;;;;5081667;28;20159;-87
2023/10/06 11:28:07;;;;;;;5.40;2.40;;;19.60;97.30;;;;;;5096702;28;20202;-86
2023/10/06 11:30:34;;;;;;;4.23;2.23;;;19.60;97.30;;;;;;5082963;28;20285;-86
2023/10/06 11:33:05;;;;;;;6.47;2.57;;;19.60;97.30;;;;;;5092659;28;20184;-86
2023/10/06 11:35:33;;;;;;;3.80;2.33;;;19.60;97.40;;;;;;5083010;28;20195;-86
2023/10/06 11:37:59;;;;;;;5.07;2.17;;;19.60;97.30;;;;;;5084929;28;20487;-86
2023/10/06 11:40:26;;;;;;;6.80;2.70;;;19.60;97.40;;;;;;5100161;28;20245;-87
2023/10/06 11:42:52;;;;;;;4.07;2.13;;;19.60;97.30;;;;;;5097538;28;20167;-87
2023/10/06 11:45:30;;;;;;;4.70;2.20;;;19.70;97.20;;;;;;5097800;28;20183;-87
2023/10/06 11:47:58;;;;;;;4.83;2.40;;;19.70;97.20;;;;;;5100276;28;20539;-86
2023/10/06 11:50:32;;;;;;;5.90;2.83;;;19.70;97.30;;;;;;5105435;28;20633;-87
2023/10/06 11:53:01;;;;;;;5.90;2.67;;;19.70;97.30;;;;;;5098447;28;20746;-87
2023/10/06 11:55:34;;;;;;;4.83;2.77;;;19.70;97.40;;;;;;5091221;28;20204;-87
2023/10/06 11:58:01;;;;;;;5.30;2.17;;;19.70;97.30;;;;;;5089159;28;20266;-87
2023/10/06 12:00:35;;;;;;;5.50;2.50;;;19.70;97.30;;;;;;5090625;28;20173;-86
2023/10/06 12:03:01;;;;;;;4.70;2.40;;;19.70;97.30;;;;;;5084913;28;20264;-87
2023/10/06 12:05:26;;;;;;;4.83;2.27;;;19.70;97.20;;;;;;5093377;28;20177;-87
2023/10/06 12:07:52;;;;;;;7.17;2.43;;;19.70;97.30;;;;;;5086518;28;20202;-86
2023/10/06 12:10:21;;;;;;;5.37;2.47;;;19.60;97.30;;;;;;5089488;28;20494;-87
2023/10/06 12:12:49;;;;;;;6.43;2.40;;;19.60;97.20;;;;;;5102292;28;20741;-87
2023/10/06 12:15:15;;;;;;;5.20;2.37;;;19.70;97.40;;;;;;5104025;28;20433;-87
2023/10/06 12:17:45;;;;;;;4.93;2.10;;;19.70;97.20;;;;;;5105256;28;20185;-87
2023/10/06 12:20:15;;;;;;;7.37;2.10;;;19.70;97.20;;;;;;5091350;28;20193;-87
2023/10/06 12:22:42;;;;;;;4.87;2.10;;;19.70;97.10;;;;;;5106736;28;20428;-87
2023/10/06 12:25:14;;;;;;;3.90;2.20;;;19.70;97.20;;;;;;5091898;28;20183;-86
2023/10/06 12:27:47;;;;;;;4.10;2.13;;;19.70;97.10;;;;;;5105488;28;20316;-86
2023/10/06 12:30:17;;;;;;;4.07;2.27;;;19.70;97.10;;;;;;5091633;28;20202;-86
2023/10/06 12:32:45;;;;;;;3.87;2.10;;;19.80;97.20;;;;;;5102666;28;20287;-87
2023/10/06 12:35:12;;;;;;;3.90;2.20;;;19.80;97.00;;;;;;5101030;28;20192;-86
2023/10/06 12:37:41;;;;;;;4.47;2.27;;;19.80;97.10;;;;;;5084933;28;20269;-86
2023/10/06 12:40:09;;;;;;;4.43;2.37;;;19.80;97.20;;;;;;5088141;28;20382;-87
2023/10/06 12:42:36;;;;;;;6.17;2.60;;;19.80;97.20;;;;;;5102973;28;20170;-86
2023/10/06 12:45:02;;;;;;;3.30;2.03;;;19.80;97.20;;;;;;5099054;28;20313;-87
2023/10/06 12:47:28;;;;;;;5.47;2.40;;;19.80;97.10;;;;;;5103600;28;20198;-87
2023/10/06 12:49:58;;;;;;;5.03;2.20;;;19.80;97.10;;;;;;5103401;28;20453;-86
2023/10/06 12:52:24;;;;;;;4.90;2.17;;;19.80;97.20;;;;;;5100413;28;20223;-86
2023/10/06 12:54:49;;;;;;;5.93;2.30;;;19.80;97.20;;;;;;5105483;28;20168;-86
2023/10/06 12:57:15;;;;;;;4.67;2.27;;;19.80;97.10;;;;;;5100523;28;20174;-87
2023/10/06 12:59:41;;;;;;;3.87;2.30;;;19.80;97.20;;;;;;5107732;28;20171;-86
2023/10/06 13:02:07;;;;;;;5.70;2.17;;;19.80;97.10;;;;;;5097220;28;20170;-87
2023/10/06 13:04:32;;;;;;;3.93;1.93;;;19.80;97.10;;;;;;5107063;28;20185;-86
2023/10/06 13:06:59;;;;;;;4.37;2.20;;;19.80;97.10;;;;;;5094575;28;20608;-87
2023/10/06 13:09:27;;;;;;;6.20;2.60;;;19.90;97.00;;;;;;5106948;28;20400;-87
2023/10/06 13:11:53;;;;;;;5.37;2.07;;;19.80;97.00;;;;;;5093820;28;20162;-87
2023/10/06 13:14:18;;;;;;;4.80;2.23;;;19.90;97.10;;;;;;5105548;28;20171;-86
2023/10/06 13:16:48;;;;;;;5.50;2.40;;;19.90;97.10;;;;;;5094036;28;20184;-88
2023/10/06 13:19:14;;;;;;;2.93;1.90;;;19.90;97.00;;;;;;5086433;28;20332;-87